Portada
METAR-TAF:

METAR-TAF

Aeropuertos :

Aeropuerto Internacional de Györ-Pér

Győr, Hungría

latitud: 47-37-28N, longitud: 017-48-49E, altitud: 129 m

Observación

El informe se hizo hace 33 minutos, a las 00:15 UTC
Viento 12 kt del noroeste
Temperatura 5°C
Humedad 70%
Presión 1017 hPa
Visibilidad 10 km o más
sin nubes por debajo de 1500 m y sin presencia de cumulonimbus.

METAR: LHPR 300015Z AUTO 32012KT CAVOK 05/00 Q1017

Hora: 02:48 (00:48 UTC)

Pronóstico

El informe se hizo hace 7 horas y 33 minutos, a las 17:15 UTC
Pronóstico válido del 29 a las 18 UTC al 30 a las 03 UTC
Viento 18 kt del noroeste
Visibilidad 10 km o más
sin nubes por debajo de 1500 m y sin presencia de cumulonimbus.
Evolucionando progresivamente
del 29 a las 22 UTC al 29 a las 24 UTC
Viento 24 kt del norte-noroeste

TAF: LHPR 291715Z 2918/3003 31018KT CAVOK BECMG 2922/2924 34024KT

Observaciones y pronósticos meteorológicos de más de 4000 aeropuertos (mensajes METAR y TAF).

Los puntos amarillos y rojos representan las estaciones disponibles.

Ponga el ratón en el punto deseado para ver el nombre de la estación.

Haga clic para ver las observaciones y los pronósticos meteorológicos.

Para cambiar el mapa : haga clic en los botones verdes con una cruz de color negro para hacer un zoom, en el botón verde con un guión para alejar o en las flechas verdes para mapas adyacentes.


METAR-TAF: